sensor_id;sensor_type;location;lat;lon;timestamp;P1;durP1;ratioP1;P2;durP2;ratioP2
30613;SDS011;17381;51.690;5.270;2023-04-25T00:14:24;8.95;;;3.00;;
30613;SDS011;17381;51.690;5.270;2023-04-25T00:20:30;10.48;;;3.60;;
30613;SDS011;17381;51.690;5.270;2023-04-25T00:23:44;13.35;;;3.40;;
30613;SDS011;17381;51.690;5.270;2023-04-25T00:26:35;11.20;;;3.90;;
30613;SDS011;17381;51.690;5.270;2023-04-25T00:29:30;9.43;;;3.40;;
30613;SDS011;17381;51.690;5.270;2023-04-25T00:32:42;9.20;;;3.58;;
30613;SDS011;17381;51.690;5.270;2023-04-25T00:35:40;9.07;;;3.40;;
30613;SDS011;17381;51.690;5.270;2023-04-25T00:38:33;11.73;;;3.10;;
30613;SDS011;17381;51.690;5.270;2023-04-25T01:20:07;8.95;;;2.70;;
30613;SDS011;17381;51.690;5.270;2023-04-25T01:29:54;12.85;;;4.00;;
30613;SDS011;17381;51.690;5.270;2023-04-25T01:32:45;10.48;;;3.85;;
30613;SDS011;17381;51.690;5.270;2023-04-25T01:35:51;10.00;;;4.00;;
30613;SDS011;17381;51.690;5.270;2023-04-25T01:38:35;12.30;;;4.57;;
30613;SDS011;17381;51.690;5.270;2023-04-25T01:41:32;11.80;;;4.65;;
30613;SDS011;17381;51.690;5.270;2023-04-25T01:44:24;10.25;;;4.10;;
30613;SDS011;17381;51.690;5.270;2023-04-25T01:47:20;12.77;;;4.60;;
30613;SDS011;17381;51.690;5.270;2023-04-25T01:50:17;12.15;;;4.78;;
30613;SDS011;17381;51.690;5.270;2023-04-25T01:53:11;13.52;;;4.63;;
30613;SDS011;17381;51.690;5.270;2023-04-25T01:56:16;10.70;;;4.25;;
30613;SDS011;17381;51.690;5.270;2023-04-25T01:59:12;13.55;;;4.50;;
30613;SDS011;17381;51.690;5.270;2023-04-25T02:02:33;13.20;;;4.00;;
30613;SDS011;17381;51.690;5.270;2023-04-25T02:05:33;9.68;;;3.72;;
30613;SDS011;17381;51.690;5.270;2023-04-25T02:08:25;9.90;;;3.22;;
30613;SDS011;17381;51.690;5.270;2023-04-25T02:11:16;7.57;;;3.50;;
30613;SDS011;17381;51.690;5.270;2023-04-25T02:13:58;9.23;;;3.25;;
30613;SDS011;17381;51.690;5.270;2023-04-25T02:17:22;9.15;;;3.05;;
30613;SDS011;17381;51.690;5.270;2023-04-25T02:20:20;11.43;;;3.40;;
30613;SDS011;17381;51.690;5.270;2023-04-25T02:22:50;10.27;;;3.78;;
30613;SDS011;17381;51.690;5.270;2023-04-25T02:25:36;8.73;;;2.90;;
30613;SDS011;17381;51.690;5.270;2023-04-25T02:28:27;8.95;;;3.42;;
30613;SDS011;17381;51.690;5.270;2023-04-25T02:46:28;10.00;;;3.35;;
30613;SDS011;17381;51.690;5.270;2023-04-25T02:49:09;13.18;;;3.42;;
30613;SDS011;17381;51.690;5.270;2023-04-25T02:51:56;8.30;;;3.53;;
30613;SDS011;17381;51.690;5.270;2023-04-25T02:54:43;7.53;;;2.97;;
30613;SDS011;17381;51.690;5.270;2023-04-25T02:57:41;6.03;;;2.55;;
30613;SDS011;17381;51.690;5.270;2023-04-25T03:16:29;10.43;;;3.33;;
30613;SDS011;17381;51.690;5.270;2023-04-25T03:26:43;7.43;;;2.90;;
30613;SDS011;17381;51.690;5.270;2023-04-25T03:29:44;9.07;;;2.70;;
30613;SDS011;17381;51.690;5.270;2023-04-25T03:32:36;9.02;;;2.90;;
30613;SDS011;17381;51.690;5.270;2023-04-25T03:35:32;7.07;;;2.50;;
30613;SDS011;17381;51.690;5.270;2023-04-25T03:38:27;10.38;;;3.80;;
30613;SDS011;17381;51.690;5.270;2023-04-25T03:41:35;8.20;;;2.78;;
30613;SDS011;17381;51.690;5.270;2023-04-25T04:31:57;9.38;;;3.58;;
30613;SDS011;17381;51.690;5.270;2023-04-25T04:34:28;8.18;;;2.92;;
30613;SDS011;17381;51.690;5.270;2023-04-25T04:37:03;7.18;;;3.35;;
30613;SDS011;17381;51.690;5.270;2023-04-25T04:39:36;9.23;;;3.10;;
30613;SDS011;17381;51.690;5.270;2023-04-25T04:42:27;14.93;;;3.50;;
30613;SDS011;17381;51.690;5.270;2023-04-25T04:45:13;10.20;;;3.55;;
30613;SDS011;17381;51.690;5.270;2023-04-25T04:48:36;14.52;;;4.05;;
30613;SDS011;17381;51.690;5.270;2023-04-25T04:51:34;14.45;;;4.05;;
30613;SDS011;17381;51.690;5.270;2023-04-25T04:54:25;9.77;;;3.10;;
30613;SDS011;17381;51.690;5.270;2023-04-25T04:57:24;11.90;;;4.15;;
30613;SDS011;17381;51.690;5.270;2023-04-25T05:00:19;16.10;;;4.20;;
30613;SDS011;17381;51.690;5.270;2023-04-25T05:14:05;12.30;;;3.05;;
30613;SDS011;17381;51.690;5.270;2023-04-25T05:16:53;10.00;;;3.20;;
30613;SDS011;17381;51.690;5.270;2023-04-25T05:20:03;11.35;;;3.35;;
30613;SDS011;17381;51.690;5.270;2023-04-25T05:23:15;12.90;;;3.42;;
30613;SDS011;17381;51.690;5.270;2023-04-25T05:26:32;11.77;;;3.58;;
30613;SDS011;17381;51.690;5.270;2023-04-25T05:29:41;10.85;;;3.50;;
30613;SDS011;17381;51.690;5.270;2023-04-25T05:32:29;12.23;;;3.80;;
30613;SDS011;17381;51.690;5.270;2023-04-25T05:35:02;12.57;;;4.32;;
30613;SDS011;17381;51.690;5.270;2023-04-25T05:37:47;12.18;;;4.65;;
30613;SDS011;17381;51.690;5.270;2023-04-25T05:40:48;10.15;;;3.30;;
30613;SDS011;17381;51.690;5.270;2023-04-25T05:44:02;10.05;;;3.45;;
30613;SDS011;17381;51.690;5.270;2023-04-25T05:47:17;9.25;;;3.15;;
30613;SDS011;17381;51.690;5.270;2023-04-25T06:41:28;7.57;;;2.13;;
30613;SDS011;17381;51.690;5.270;2023-04-25T06:44:10;12.95;;;2.42;;
30613;SDS011;17381;51.690;5.270;2023-04-25T06:47:01;8.43;;;2.15;;
30613;SDS011;17381;51.690;5.270;2023-04-25T06:49:48;5.65;;;1.80;;
30613;SDS011;17381;51.690;5.270;2023-04-25T07:30:54;5.78;;;1.88;;
30613;SDS011;17381;51.690;5.270;2023-04-25T07:34:19;9.80;;;2.55;;
30613;SDS011;17381;51.690;5.270;2023-04-25T07:37:28;8.85;;;1.90;;
30613;SDS011;17381;51.690;5.270;2023-04-25T07:40:42;9.63;;;2.00;;
30613;SDS011;17381;51.690;5.270;2023-04-25T07:44:10;9.88;;;2.00;;
30613;SDS011;17381;51.690;5.270;2023-04-25T07:47:07;7.15;;;1.92;;
30613;SDS011;17381;51.690;5.270;2023-04-25T07:53:50;5.75;;;1.67;;
30613;SDS011;17381;51.690;5.270;2023-04-25T09:02:00;11.82;;;2.20;;
30613;SDS011;17381;51.690;5.270;2023-04-25T09:05:01;11.93;;;2.20;;
30613;SDS011;17381;51.690;5.270;2023-04-25T09:08:09;8.55;;;1.50;;
30613;SDS011;17381;51.690;5.270;2023-04-25T09:12:01;10.60;;;1.95;;
30613;SDS011;17381;51.690;5.270;2023-04-25T11:17:24;6.05;;;1.48;;
30613;SDS011;17381;51.690;5.270;2023-04-25T11:20:35;3.63;;;1.30;;
30613;SDS011;17381;51.690;5.270;2023-04-25T11:24:16;2.58;;;0.70;;
30613;SDS011;17381;51.690;5.270;2023-04-25T11:38:02;2.83;;;0.70;;
30613;SDS011;17381;51.690;5.270;2023-04-25T11:41:22;1.17;;;0.45;;
30613;SDS011;17381;51.690;5.270;2023-04-25T11:44:42;2.00;;;0.50;;
30613;SDS011;17381;51.690;5.270;2023-04-25T11:47:55;2.78;;;0.70;;
30613;SDS011;17381;51.690;5.270;2023-04-25T11:50:59;3.22;;;0.90;;
30613;SDS011;17381;51.690;5.270;2023-04-25T11:57:27;4.97;;;1.10;;
30613;SDS011;17381;51.690;5.270;2023-04-25T12:00:54;6.28;;;2.40;;
30613;SDS011;17381;51.690;5.270;2023-04-25T12:04:09;20.50;;;10.73;;
30613;SDS011;17381;51.690;5.270;2023-04-25T12:07:20;10.48;;;5.10;;
30613;SDS011;17381;51.690;5.270;2023-04-25T12:10:42;6.63;;;1.83;;
30613;SDS011;17381;51.690;5.270;2023-04-25T12:14:01;4.43;;;1.10;;
30613;SDS011;17381;51.690;5.270;2023-04-25T12:16:52;5.65;;;1.30;;
30613;SDS011;17381;51.690;5.270;2023-04-25T12:20:13;4.20;;;1.20;;
30613;SDS011;17381;51.690;5.270;2023-04-25T12:23:39;3.72;;;1.05;;
30613;SDS011;17381;51.690;5.270;2023-04-25T12:27:13;3.38;;;0.82;;
30613;SDS011;17381;51.690;5.270;2023-04-25T12:34:03;3.63;;;1.00;;
30613;SDS011;17381;51.690;5.270;2023-04-25T12:37:00;5.97;;;1.58;;
30613;SDS011;17381;51.690;5.270;2023-04-25T12:40:20;4.25;;;0.90;;
30613;SDS011;17381;51.690;5.270;2023-04-25T12:43:55;6.65;;;1.38;;
30613;SDS011;17381;51.690;5.270;2023-04-25T12:59:47;4.72;;;1.10;;
30613;SDS011;17381;51.690;5.270;2023-04-25T13:02:51;8.52;;;1.48;;
30613;SDS011;17381;51.690;5.270;2023-04-25T13:05:57;3.90;;;0.95;;
30613;SDS011;17381;51.690;5.270;2023-04-25T13:09:19;5.45;;;1.58;;
30613;SDS011;17381;51.690;5.270;2023-04-25T13:12:27;6.88;;;1.55;;
30613;SDS011;17381;51.690;5.270;2023-04-25T13:15:48;6.78;;;1.23;;
30613;SDS011;17381;51.690;5.270;2023-04-25T13:19:00;4.70;;;1.60;;
30613;SDS011;17381;51.690;5.270;2023-04-25T13:22:19;7.13;;;1.42;;
30613;SDS011;17381;51.690;5.270;2023-04-25T13:37:51;5.28;;;1.08;;
30613;SDS011;17381;51.690;5.270;2023-04-25T13:43:39;6.18;;;1.25;;
30613;SDS011;17381;51.690;5.270;2023-04-25T13:46:29;5.72;;;1.70;;
30613;SDS011;17381;51.690;5.270;2023-04-25T13:49:31;4.70;;;1.10;;
30613;SDS011;17381;51.690;5.270;2023-04-25T13:52:45;5.97;;;1.45;;
30613;SDS011;17381;51.690;5.270;2023-04-25T13:55:54;8.00;;;1.42;;
30613;SDS011;17381;51.690;5.270;2023-04-25T13:59:13;6.50;;;1.42;;
30613;SDS011;17381;51.690;5.270;2023-04-25T14:02:13;3.83;;;1.02;;
30613;SDS011;17381;51.690;5.270;2023-04-25T14:05:26;3.63;;;1.23;;
30613;SDS011;17381;51.690;5.270;2023-04-25T14:08:32;4.57;;;0.93;;
30613;SDS011;17381;51.690;5.270;2023-04-25T14:11:28;5.50;;;1.38;;
30613;SDS011;17381;51.690;5.270;2023-04-25T14:14:47;5.53;;;1.15;;
30613;SDS011;17381;51.690;5.270;2023-04-25T14:17:42;6.03;;;1.30;;
30613;SDS011;17381;51.690;5.270;2023-04-25T14:24:16;5.18;;;0.80;;
30613;SDS011;17381;51.690;5.270;2023-04-25T14:27:23;5.20;;;0.85;;
30613;SDS011;17381;51.690;5.270;2023-04-25T14:30:32;4.13;;;1.00;;
30613;SDS011;17381;51.690;5.270;2023-04-25T14:33:23;4.03;;;1.00;;
30613;SDS011;17381;51.690;5.270;2023-04-25T14:47:40;3.83;;;1.10;;
30613;SDS011;17381;51.690;5.270;2023-04-25T16:03:29;7.65;;;1.08;;
30613;SDS011;17381;51.690;5.270;2023-04-25T16:06:41;6.40;;;1.20;;
30613;SDS011;17381;51.690;5.270;2023-04-25T17:16:32;5.80;;;1.35;;
30613;SDS011;17381;51.690;5.270;2023-04-25T19:09:59;4.35;;;1.40;;
30613;SDS011;17381;51.690;5.270;2023-04-25T19:51:40;8.60;;;2.30;;
30613;SDS011;17381;51.690;5.270;2023-04-25T20:56:53;8.48;;;2.50;;
30613;SDS011;17381;51.690;5.270;2023-04-25T21:49:46;9.88;;;3.17;;
30613;SDS011;17381;51.690;5.270;2023-04-25T21:56:09;6.68;;;2.95;;
30613;SDS011;17381;51.690;5.270;2023-04-25T22:23:28;7.47;;;2.70;;
30613;SDS011;17381;51.690;5.270;2023-04-25T22:41:59;7.20;;;3.88;;
30613;SDS011;17381;51.690;5.270;2023-04-25T22:45:34;9.80;;;3.88;;
30613;SDS011;17381;51.690;5.270;2023-04-25T22:48:34;8.07;;;3.55;;
30613;SDS011;17381;51.690;5.270;2023-04-25T23:02:38;9.10;;;3.38;;
30613;SDS011;17381;51.690;5.270;2023-04-25T23:06:18;6.93;;;3.20;;
30613;SDS011;17381;51.690;5.270;2023-04-25T23:08:48;8.48;;;3.15;;
30613;SDS011;17381;51.690;5.270;2023-04-25T23:14:03;7.10;;;3.13;;
30613;SDS011;17381;51.690;5.270;2023-04-25T23:16:50;7.53;;;4.07;;
30613;SDS011;17381;51.690;5.270;2023-04-25T23:19:36;7.88;;;3.83;;
30613;SDS011;17381;51.690;5.270;2023-04-25T23:22:12;7.78;;;3.17;;
30613;SDS011;17381;51.690;5.270;2023-04-25T23:24:46;9.57;;;4.22;;
30613;SDS011;17381;51.690;5.270;2023-04-25T23:27:20;6.78;;;3.70;;
30613;SDS011;17381;51.690;5.270;2023-04-25T23:29:54;8.80;;;3.30;;
30613;SDS011;17381;51.690;5.270;2023-04-25T23:32:28;5.90;;;3.33;;
30613;SDS011;17381;51.690;5.270;2023-04-25T23:35:21;7.80;;;3.67;;
30613;SDS011;17381;51.690;5.270;2023-04-25T23:38:05;8.20;;;4.13;;
30613;SDS011;17381;51.690;5.270;2023-04-25T23:40:32;8.73;;;3.75;;
30613;SDS011;17381;51.690;5.270;2023-04-25T23:43:14;6.22;;;3.67;;
30613;SDS011;17381;51.690;5.270;2023-04-25T23:45:43;7.07;;;3.70;;
30613;SDS011;17381;51.690;5.270;2023-04-25T23:48:42;7.57;;;3.30;;
30613;SDS011;17381;51.690;5.270;2023-04-25T23:51:17;5.88;;;3.42;;
30613;SDS011;17381;51.690;5.270;2023-04-25T23:53:53;9.02;;;3.90;;
30613;SDS011;17381;51.690;5.270;2023-04-25T23:56:25;8.88;;;4.25;;
30613;SDS011;17381;51.690;5.270;2023-04-25T23:59:02;6.70;;;3.47;;
